Time;durP1;ratioP1;P1;durP2;ratioP2;P2;SDS_P1;SDS_P2;PMS_P1;PMS_P2;Temp;Humidity;BMP_temperature;BMP_pressure;BME280_temperature;BME280_humidity;BME280_pressure;Samples;Min_cycle;Max_cycle;Signal;HPM_P1;HPM_P2
2023/07/20 00:02:23;;;;;;;1.17;0.80;;;;;;;13.60;56.69;101313.41;4965234;28;20406;-71
2023/07/20 00:04:49;;;;;;;0.80;0.22;;;;;;;13.65;56.76;101310.59;4984377;28;20124;-71
2023/07/20 00:07:14;;;;;;;1.38;0.50;;;;;;;13.58;56.56;101310.00;4955655;28;20052;-71
2023/07/20 00:09:40;;;;;;;2.40;0.43;;;;;;;13.58;56.59;101314.41;4951213;28;20041;-74
2023/07/20 00:12:06;;;;;;;1.05;0.38;;;;;;;13.60;56.43;101316.03;4955589;28;20497;-74
2023/07/20 00:14:34;;;;;;;1.23;0.55;;;;;;;13.56;56.43;101306.56;4967335;28;20497;-74
2023/07/20 00:17:02;;;;;;;3.83;1.38;;;;;;;13.65;56.32;101310.59;4960276;28;20560;-74
2023/07/20 00:19:28;;;;;;;3.83;0.60;;;;;;;13.65;56.18;101307.94;4963839;28;20405;-73
2023/07/20 00:21:56;;;;;;;2.90;0.60;;;;;;;13.56;56.02;101300.47;4970757;28;20041;-73
2023/07/20 00:24:21;;;;;;;1.75;0.30;;;;;;;13.62;56.28;101305.47;4966292;28;20042;-75
2023/07/20 00:26:47;;;;;;;3.38;0.47;;;;;;;13.52;56.11;101300.63;4971457;28;20390;-75
2023/07/20 00:29:16;;;;;;;2.00;0.40;;;;;;;13.57;56.25;101312.72;4956601;28;20404;-76
2023/07/20 00:31:43;;;;;;;2.03;0.57;;;;;;;13.60;56.34;101302.06;4968039;28;20136;-75
2023/07/20 00:34:09;;;;;;;5.07;0.60;;;;;;;13.50;55.79;101299.84;4970040;28;20065;-75
2023/07/20 00:36:34;;;;;;;1.10;0.60;;;;;;;13.47;56.16;101297.38;4966804;28;20164;-70
2023/07/20 00:39:02;;;;;;;2.15;0.50;;;;;;;13.49;56.09;101298.13;4974360;28;20046;-74
2023/07/20 00:41:29;;;;;;;1.75;0.40;;;;;;;13.57;56.03;101303.06;4971309;28;20446;-74
2023/07/20 00:43:56;;;;;;;0.80;0.28;;;;;;;13.57;56.10;101303.06;4952187;28;20130;-74
2023/07/20 00:46:25;;;;;;;1.15;0.30;;;;;;;13.58;55.81;101303.91;4984161;28;20567;-73
2023/07/20 00:48:52;;;;;;;1.15;0.30;;;;;;;13.51;55.96;101308.56;4969610;28;20058;-73
2023/07/20 00:51:18;;;;;;;0.95;0.38;;;;;;;13.38;55.80;101305.63;4950735;28;20202;-74
2023/07/20 00:53:49;;;;;;;0.98;0.30;;;;;;;13.37;55.71;101306.56;4969810;28;20140;-75
2023/07/20 00:56:17;;;;;;;1.58;0.52;;;;;;;13.26;55.96;101300.94;4963243;28;20220;-74
2023/07/20 00:58:50;;;;;;;0.60;0.28;;;;;;;13.31;55.82;101309.47;4948357;28;20049;-72
2023/07/20 01:01:16;;;;;;;0.75;0.38;;;;;;;13.27;55.54;101310.50;4949475;28;20448;-69
2023/07/20 01:03:43;;;;;;;1.80;0.70;;;;;;;13.22;55.33;101302.00;4983756;28;20615;-69
2023/07/20 01:06:30;;;;;;;1.77;0.35;;;;;;;13.27;55.65;101308.75;4970377;28;20033;-72
2023/07/20 01:09:08;;;;;;;0.63;0.20;;;;;;;13.23;55.57;101309.81;4975517;28;20045;-70
2023/07/20 01:11:43;;;;;;;1.05;0.40;;;;;;;13.27;55.55;101315.75;4966179;28;20033;-71
2023/07/20 01:14:16;;;;;;;1.15;0.30;;;;;;;13.24;55.39;101311.50;4963200;28;20116;-72
2023/07/20 01:16:42;;;;;;;1.73;0.30;;;;;;;13.28;55.62;101317.47;4969355;28;20480;-71
2023/07/20 01:19:07;;;;;;;2.88;0.70;;;;;;;13.21;55.46;101321.31;4956950;28;20042;-74
2023/07/20 01:22:18;;;;;;;1.50;0.40;;;;;;;13.22;55.51;101323.00;4966043;28;20034;-74
2023/07/20 01:25:11;;;;;;;2.08;0.30;;;;;;;13.21;55.76;101319.53;4943455;28;20413;-73
2023/07/20 01:28:09;;;;;;;1.08;0.70;;;;;;;13.05;55.68;101319.34;4952373;28;20148;-73
2023/07/20 01:30:48;;;;;;;1.70;0.47;;;;;;;13.13;55.90;101323.41;4966898;28;20097;-73
2023/07/20 01:33:16;;;;;;;0.93;0.40;;;;;;;13.00;55.88;101317.81;4921597;28;20113;-69
2023/07/20 01:35:46;;;;;;;0.98;0.30;;;;;;;12.98;55.65;101323.16;4945958;28;20035;-68
2023/07/20 01:38:14;;;;;;;1.48;0.40;;;;;;;12.95;55.65;101325.91;4952618;28;20069;-72
2023/07/20 01:40:43;;;;;;;1.45;0.40;;;;;;;12.89;55.55;101320.91;4968679;28;20038;-73
2023/07/20 01:43:08;;;;;;;0.73;0.40;;;;;;;12.92;55.41;101314.69;4957642;28;20097;-72
2023/07/20 01:45:37;;;;;;;1.33;0.50;;;;;;;12.90;55.44;101312.13;4947413;28;20063;-73
2023/07/20 01:48:03;;;;;;;2.63;0.73;;;;;;;12.77;55.38;101317.03;4962673;28;20042;-74
2023/07/20 01:50:28;;;;;;;1.08;0.20;;;;;;;12.77;55.20;101314.41;4965287;28;20118;-73
2023/07/20 01:52:56;;;;;;;1.00;0.40;;;;;;;12.65;55.37;101315.75;4969625;28;20042;-73
2023/07/20 01:55:22;;;;;;;2.03;0.40;;;;;;;12.60;55.35;101309.88;4966365;28;20580;-73
2023/07/20 01:57:47;;;;;;;1.70;0.47;;;;;;;12.54;55.71;101310.09;4967634;28;20050;-73
2023/07/20 02:00:13;;;;;;;1.92;0.50;;;;;;;12.50;55.35;101303.28;4969311;28;20042;-73
2023/07/20 02:02:42;;;;;;;2.22;0.35;;;;;;;12.42;55.54;101306.22;4967692;28;20068;-74
2023/07/20 02:05:09;;;;;;;2.30;0.50;;;;;;;12.32;55.58;101307.50;4971279;28;20034;-73
2023/07/20 02:07:34;;;;;;;2.00;0.60;;;;;;;12.20;55.57;101306.25;4960201;28;22174;-73
2023/07/20 02:10:00;;;;;;;1.42;0.50;;;;;;;12.09;55.81;101311.06;4948949;28;20121;-74
2023/07/20 02:12:25;;;;;;;0.85;0.32;;;;;;;11.97;56.01;101308.91;4939731;28;20138;-72
2023/07/20 02:14:53;;;;;;;0.82;0.32;;;;;;;11.95;56.26;101308.94;4939328;28;20082;-72
2023/07/20 02:17:22;;;;;;;2.72;0.40;;;;;;;12.00;56.06;101300.91;4938533;28;20568;-74
2023/07/20 02:19:52;;;;;;;0.77;0.43;;;;;;;11.97;55.98;101304.50;4943991;28;20097;-73
2023/07/20 02:22:17;;;;;;;2.67;0.85;;;;;;;11.94;55.99;101309.03;4928474;28;20052;-73
2023/07/20 02:24:42;;;;;;;1.38;0.32;;;;;;;11.90;55.80;101299.59;4947132;28;20035;-73
2023/07/20 02:27:08;;;;;;;2.47;0.63;;;;;;;11.85;56.00;101295.38;4942595;28;20039;-74
2023/07/20 02:29:33;;;;;;;0.88;0.40;;;;;;;11.81;56.05;101293.78;4958565;28;20874;-74
2023/07/20 02:32:01;;;;;;;1.67;0.40;;;;;;;11.76;55.98;101290.47;4953315;28;20039;-74
2023/07/20 02:34:27;;;;;;;3.30;0.30;;;;;;;11.76;55.82;101300.94;4965635;28;20022;-68
2023/07/20 02:36:52;;;;;;;0.95;0.50;;;;;;;11.60;55.79;101302.44;4969240;28;20386;-73
2023/07/20 02:39:18;;;;;;;1.95;0.40;;;;;;;11.43;56.25;101298.66;4966695;28;20531;-73
2023/07/20 02:41:43;;;;;;;7.13;0.50;;;;;;;11.43;56.44;101300.44;4961310;28;20489;-73
2023/07/20 02:44:09;;;;;;;0.90;0.30;;;;;;;11.39;56.50;101297.06;4956112;28;20049;-73
2023/07/20 02:46:35;;;;;;;1.13;0.47;;;;;;;11.37;56.19;101303.28;4977366;28;20043;-72
2023/07/20 02:49:01;;;;;;;0.77;0.20;;;;;;;11.37;56.39;101303.28;4969822;28;20309;-73
2023/07/20 02:51:26;;;;;;;1.38;0.50;;;;;;;11.36;56.38;101307.66;4964862;28;20034;-74
2023/07/20 02:53:52;;;;;;;2.78;0.50;;;;;;;11.33;56.68;101315.63;4949566;28;20089;-73
2023/07/20 02:56:18;;;;;;;2.65;0.50;;;;;;;11.32;56.47;101306.06;4947290;28;20030;-74
2023/07/20 02:58:46;;;;;;;1.38;0.40;;;;;;;11.35;56.38;101299.84;4944977;28;20335;-73
2023/07/20 03:01:15;;;;;;;0.82;0.30;;;;;;;11.35;56.44;101302.47;4927726;28;20405;-74
2023/07/20 03:03:46;;;;;;;0.95;0.30;;;;;;;11.25;56.30;101309.81;4935105;28;20846;-74
2023/07/20 03:06:14;;;;;;;1.03;0.20;;;;;;;11.23;56.36;101306.38;4946982;28;20465;-73
2023/07/20 03:08:41;;;;;;;1.65;0.43;;;;;;;11.18;56.24;101308.31;4949438;28;20524;-74
2023/07/20 03:11:07;;;;;;;0.98;0.30;;;;;;;11.15;56.49;101317.16;4950519;28;20094;-74
2023/07/20 03:13:33;;;;;;;0.90;0.32;;;;;;;11.11;56.48;101314.69;4935752;28;20449;-73
2023/07/20 03:15:58;;;;;;;2.33;0.32;;;;;;;11.00;56.55;101310.69;4948738;28;20033;-73
2023/07/20 03:18:24;;;;;;;2.40;0.75;;;;;;;11.11;56.45;101319.91;4945524;28;20045;-69
2023/07/20 03:20:49;;;;;;;0.73;0.40;;;;;;;11.09;56.82;101319.13;4948880;28;20117;-70
2023/07/20 03:23:16;;;;;;;0.85;0.40;;;;;;;11.02;56.60;101321.94;4950522;28;20066;-71
2023/07/20 03:25:44;;;;;;;1.38;0.40;;;;;;;11.09;56.98;101324.34;4932426;28;20323;-70
2023/07/20 03:28:09;;;;;;;1.27;0.30;;;;;;;11.16;56.78;101325.84;4948618;28;20039;-70
2023/07/20 03:30:37;;;;;;;1.08;0.50;;;;;;;11.16;56.59;101325.84;4935949;28;20152;-70
2023/07/20 03:33:03;;;;;;;3.10;0.60;;;;;;;11.18;56.55;101318.78;4944417;28;20045;-70
2023/07/20 03:35:31;;;;;;;0.88;0.30;;;;;;;11.19;56.54;101326.56;4945904;28;20064;-72
2023/07/20 03:37:57;;;;;;;1.38;0.50;;;;;;;11.19;56.44;101320.47;4951963;28;20031;-70
2023/07/20 03:40:22;;;;;;;2.38;0.70;;;;;;;11.12;56.66;101324.22;4953401;28;20552;-71
2023/07/20 03:42:48;;;;;;;2.25;0.57;;;;;;;11.25;56.62;101315.03;4952091;28;20038;-68
2023/07/20 03:45:15;;;;;;;1.33;0.50;;;;;;;11.16;56.27;101315.38;4959691;28;20027;-69
2023/07/20 03:47:40;;;;;;;1.10;0.52;;;;;;;11.28;56.46;101317.53;4948263;28;20061;-68
2023/07/20 03:50:06;;;;;;;3.90;0.63;;;;;;;11.33;56.54;101313.00;4957783;28;20044;-69
2023/07/20 03:52:34;;;;;;;2.95;0.63;;;;;;;11.41;56.36;101316.19;4971912;28;20114;-69
2023/07/20 03:55:02;;;;;;;3.50;1.23;;;;;;;11.58;55.93;101340.91;4969715;28;20541;-69
2023/07/20 03:57:27;;;;;;;2.08;0.80;;;;;;;11.45;55.94;101348.34;4989870;28;20038;-69
2023/07/20 03:59:55;;;;;;;1.58;0.52;;;;;;;11.33;56.47;101346.16;4972495;28;20038;-73
2023/07/20 04:02:21;;;;;;;3.13;0.40;;;;;;;11.22;56.88;101342.19;4966210;28;20571;-72
2023/07/20 04:04:49;;;;;;;1.90;0.63;;;;;;;11.21;57.38;101342.22;4968338;28;20044;-70
2023/07/20 04:07:14;;;;;;;1.95;0.57;;;;;;;11.13;57.71;101341.63;4955199;28;20042;-70
2023/07/20 04:09:44;;;;;;;3.33;0.30;;;;;;;10.80;58.30;101334.84;4971399;28;20034;-70
2023/07/20 04:12:12;;;;;;;2.00;0.38;;;;;;;10.98;58.18;101333.41;4974145;28;20088;-70
2023/07/20 04:14:38;;;;;;;4.03;0.93;;;;;;;11.03;58.08;101326.25;4983408;28;20045;-70
2023/07/20 04:17:05;;;;;;;2.05;0.43;;;;;;;11.17;57.79;101327.53;4974780;28;20214;-70
2023/07/20 04:19:31;;;;;;;1.02;0.38;;;;;;;11.30;57.24;101328.81;4970445;28;20925;-70
2023/07/20 04:21:57;;;;;;;1.35;0.40;;;;;;;11.27;57.50;101331.53;4976469;28;20073;-69
2023/07/20 04:24:22;;;;;;;3.70;0.93;;;;;;;11.48;57.23;101336.91;4972278;28;20505;-69
2023/07/20 04:26:48;;;;;;;1.45;0.28;;;;;;;11.56;56.97;101329.63;4973701;28;20034;-69
2023/07/20 04:29:13;;;;;;;3.38;0.30;;;;;;;11.68;56.87;101334.41;4947754;28;20058;-69
2023/07/20 04:31:44;;;;;;;2.13;0.22;;;;;;;11.72;56.44;101330.75;4953535;28;20050;-69
2023/07/20 04:34:10;;;;;;;0.85;0.30;;;;;;;11.86;56.36;101333.72;4986368;28;20046;-68
2023/07/20 04:36:36;;;;;;;2.10;0.25;;;;;;;11.79;55.92;101332.25;4969814;28;20035;-68
2023/07/20 04:39:08;;;;;;;0.47;0.20;;;;;;;11.83;56.14;101339.09;4933534;28;20142;-68
2023/07/20 04:41:37;;;;;;;2.08;0.50;;;;;;;11.82;56.22;101333.91;4953012;28;20092;-68
2023/07/20 04:44:05;;;;;;;0.40;0.20;;;;;;;11.81;55.58;101340.91;4969537;28;20041;-70
2023/07/20 04:46:31;;;;;;;1.85;0.10;;;;;;;11.80;55.75;101344.47;4972212;28;20033;-67
2023/07/20 04:48:58;;;;;;;2.13;0.10;;;;;;;11.81;55.95;101342.69;4941765;28;20046;-68
2023/07/20 04:51:26;;;;;;;4.78;0.30;;;;;;;11.70;55.43;101347.44;4950296;28;21171;-69
2023/07/20 04:53:54;;;;;;;2.53;0.20;;;;;;;11.66;56.17;101350.19;4966546;28;20504;-68
2023/07/20 04:56:19;;;;;;;2.95;0.32;;;;;;;11.69;56.02;101357.06;4971499;28;20080;-68
2023/07/20 04:58:46;;;;;;;1.80;0.40;;;;;;;11.82;56.08;101355.75;4944368;28;20125;-71
2023/07/20 05:01:14;;;;;;;1.35;0.20;;;;;;;11.96;55.48;101357.84;4967085;28;20038;-70
2023/07/20 05:03:40;;;;;;;1.75;0.30;;;;;;;12.81;54.78;101355.34;4963162;28;20584;-71
2023/07/20 05:06:07;;;;;;;3.33;0.57;;;;;;;14.49;49.90;101346.03;4972084;28;20076;-71
2023/07/20 05:08:33;;;;;;;0.50;0.20;;;;;;;15.88;47.39;101345.00;4962959;28;20124;-70
2023/07/20 05:11:02;;;;;;;0.55;0.20;;;;;;;16.87;44.55;101350.00;4957590;28;20026;-70
2023/07/20 05:13:28;;;;;;;1.38;0.20;;;;;;;17.73;42.19;101350.09;4969076;28;20062;-71
2023/07/20 05:15:53;;;;;;;2.72;0.20;;;;;;;16.18;44.40;101353.03;4965605;28;20034;-71
2023/07/20 05:18:22;;;;;;;1.38;0.20;;;;;;;15.12;46.90;101349.91;4948164;28;20042;-71
2023/07/20 05:20:50;;;;;;;3.13;0.20;;;;;;;14.16;48.53;101353.72;4961076;28;20401;-71
2023/07/20 05:23:22;;;;;;;0.88;0.10;;;;;;;13.81;51.04;101352.75;4962033;28;20066;-71
2023/07/20 05:25:56;;;;;;;6.18;1.20;;;;;;;14.29;50.39;101354.00;4965046;28;20030;-71
2023/07/20 05:28:22;;;;;;;1.23;0.15;;;;;;;15.48;48.34;101348.94;4960495;28;20049;-71
2023/07/20 05:30:48;;;;;;;2.75;0.30;;;;;;;17.90;43.99;101357.81;4965244;28;20113;-71
2023/07/20 05:33:16;;;;;;;1.77;0.13;;;;;;;19.47;38.89;101348.22;4939989;28;20074;-71
2023/07/20 05:35:41;;;;;;;3.03;0.28;;;;;;;19.57;39.17;101344.94;4950754;28;20576;-71
2023/07/20 05:38:07;;;;;;;1.48;0.45;;;;;;;20.04;38.45;101346.84;4942138;28;20049;-71
2023/07/20 05:40:33;;;;;;;2.05;0.20;;;;;;;19.96;36.91;101345.72;4968574;28;20312;-72
2023/07/20 05:43:00;;;;;;;1.15;0.40;;;;;;;20.43;35.12;101352.00;4969876;28;20042;-71
2023/07/20 05:45:26;;;;;;;1.77;0.20;;;;;;;18.88;39.16;101351.41;4966404;28;20095;-71
2023/07/20 05:47:51;;;;;;;1.60;0.10;;;;;;;19.07;39.38;101350.16;4969495;28;20501;-71
2023/07/20 05:50:19;;;;;;;1.75;0.20;;;;;;;18.67;38.34;101345.72;4970618;28;20049;-71
2023/07/20 05:52:45;;;;;;;0.98;0.10;;;;;;;20.48;36.21;101350.69;4969745;28;20539;-71
2023/07/20 05:55:12;;;;;;;1.95;0.20;;;;;;;22.07;34.43;101347.22;4972570;28;20026;-71
2023/07/20 05:57:42;;;;;;;1.60;0.22;;;;;;;23.00;31.33;101335.06;4950216;28;20054;-71
2023/07/20 06:00:08;;;;;;;1.58;0.55;;;;;;;23.19;33.85;101345.84;4969525;28;20038;-71
2023/07/20 06:02:41;;;;;;;2.45;0.10;;;;;;;23.80;32.49;101344.94;4978559;28;20050;-71
2023/07/20 06:05:09;;;;;;;1.20;0.30;;;;;;;24.15;30.60;101346.31;4968586;28;20061;-72
2023/07/20 06:07:36;;;;;;;4.15;0.55;;;;;;;24.99;29.51;101353.72;4962884;28;20564;-71
2023/07/20 06:10:02;;;;;;;2.50;0.20;;;;;;;24.42;30.17;101347.47;4968971;28;20041;-71
2023/07/20 06:12:28;;;;;;;1.70;0.20;;;;;;;24.54;30.85;101348.16;4966868;28;20046;-72
2023/07/20 06:14:58;;;;;;;0.65;0.20;;;;;;;25.27;29.11;101348.44;4964250;28;20260;-72
2023/07/20 06:17:27;;;;;;;1.92;0.30;;;;;;;24.91;27.82;101345.56;4966171;28;20466;-71
2023/07/20 06:19:52;;;;;;;1.70;0.40;;;;;;;25.85;28.42;101342.81;4961102;28;20480;-71
2023/07/20 06:22:18;;;;;;;1.30;0.25;;;;;;;25.57;28.54;101346.50;4968092;28;20049;-71
2023/07/20 06:24:43;;;;;;;3.97;0.50;;;;;;;24.74;28.58;101343.63;4968571;28;20038;-71
2023/07/20 06:27:09;;;;;;;4.85;0.35;;;;;;;24.59;29.61;101349.44;4958575;28;20030;-71
2023/07/20 06:29:34;;;;;;;4.07;0.90;;;;;;;25.00;28.85;101349.25;4982423;28;20106;-71
2023/07/20 06:31:59;;;;;;;2.78;0.60;;;;;;;25.05;28.27;101349.63;4968444;28;20549;-72
2023/07/20 06:34:25;;;;;;;1.13;0.30;;;;;;;23.28;30.82;101356.72;4968546;28;20035;-71
2023/07/20 06:36:50;;;;;;;1.60;0.50;;;;;;;23.16;31.57;101358.59;4967497;28;20698;-72
2023/07/20 06:39:16;;;;;;;1.40;0.40;;;;;;;24.75;28.94;101359.53;4945877;28;20597;-72
2023/07/20 06:41:48;;;;;;;1.67;0.30;;;;;;;26.20;28.52;101354.56;4964129;28;20046;-72
2023/07/20 06:44:14;;;;;;;1.67;0.43;;;;;;;25.88;27.39;101355.03;4967725;28;20070;-71
2023/07/20 06:46:40;;;;;;;1.05;0.38;;;;;;;26.26;28.22;101353.09;4964330;28;20405;-72
2023/07/20 06:49:06;;;;;;;0.98;0.32;;;;;;;26.83;26.23;101358.13;4967967;28;20041;-72
2023/07/20 06:51:37;;;;;;;6.20;0.68;;;;;;;26.60;26.61;101355.94;4963790;28;21312;-72
2023/07/20 06:54:04;;;;;;;1.98;0.57;;;;;;;26.45;25.20;101352.09;4965020;28;20093;-72
2023/07/20 06:56:36;;;;;;;3.33;0.63;;;;;;;26.01;27.67;101358.19;4951948;28;20513;-72
2023/07/20 06:59:03;;;;;;;2.35;0.68;;;;;;;27.43;25.62;101357.28;4963786;28;20046;-71
2023/07/20 07:01:29;;;;;;;5.18;0.90;;;;;;;23.10;29.31;101356.47;4966045;28;20030;-70
2023/07/20 07:03:57;;;;;;;2.65;0.50;;;;;;;20.51;33.42;101366.41;4955290;28;20077;-70
2023/07/20 07:06:24;;;;;;;10.23;0.50;;;;;;;18.14;38.31;101370.38;4963231;28;20045;-71
2023/07/20 07:08:51;;;;;;;1.48;0.40;;;;;;;17.49;39.72;101368.31;4948663;28;20047;-71
2023/07/20 07:11:17;;;;;;;2.65;0.65;;;;;;;16.77;41.04;101371.66;4976733;28;20650;-72
2023/07/20 07:13:42;;;;;;;1.90;0.38;;;;;;;18.39;37.58;101375.84;4962052;28;20046;-70
2023/07/20 07:16:08;;;;;;;5.05;0.98;;;;;;;21.06;34.50;101369.34;4962491;28;20038;-72
2023/07/20 07:18:33;;;;;;;3.30;0.63;;;;;;;23.53;30.88;101366.94;4960792;28;20050;-72
2023/07/20 07:20:59;;;;;;;5.30;0.52;;;;;;;23.83;27.93;101368.72;4946104;28;20023;-71
2023/07/20 07:23:24;;;;;;;2.42;0.30;;;;;;;24.22;28.81;101375.97;4963245;28;20781;-71
2023/07/20 07:25:49;;;;;;;1.90;0.70;;;;;;;24.35;26.08;101375.72;4958151;28;20407;-69
2023/07/20 07:28:15;;;;;;;3.38;0.63;;;;;;;24.84;26.24;101376.53;4960589;28;20045;-71
2023/07/20 07:30:41;;;;;;;2.35;0.38;;;;;;;25.19;25.86;101385.75;4961770;28;20074;-71
2023/07/20 07:33:09;;;;;;;2.67;0.20;;;;;;;24.21;26.88;101380.47;4961797;28;20038;-71
2023/07/20 07:35:38;;;;;;;5.20;0.28;;;;;;;23.08;28.56;101385.09;4960524;28;20048;-70
2023/07/20 07:38:06;;;;;;;1.95;0.30;;;;;;;19.78;32.76;101387.66;4961786;28;20046;-69
2023/07/20 07:40:32;;;;;;;2.80;0.40;;;;;;;20.92;32.24;101385.53;4955527;28;20038;-71
2023/07/20 07:42:57;;;;;;;0.63;0.10;;;;;;;22.69;28.97;101384.81;4961440;28;20187;-70
2023/07/20 07:45:26;;;;;;;3.30;0.32;;;;;;;24.54;25.75;101374.88;4952184;28;20282;-70
2023/07/20 07:47:51;;;;;;;1.50;0.55;;;;;;;23.90;27.13;101382.41;4958812;28;20104;-71
2023/07/20 07:50:17;;;;;;;3.53;0.20;;;;;;;22.20;26.64;101383.50;4942223;28;20034;-71
2023/07/20 07:52:42;;;;;;;1.67;0.13;;;;;;;21.80;29.39;101395.53;4965376;28;20238;-70
2023/07/20 07:55:10;;;;;;;3.80;0.10;;;;;;;20.63;30.08;101398.31;4964546;28;20035;-71
2023/07/20 07:57:38;;;;;;;1.20;0.03;;;;;;;21.12;29.60;101397.28;4958281;28;20044;-71
2023/07/20 08:00:04;;;;;;;4.20;0.43;;;;;;;22.96;27.46;101398.47;4963871;28;20481;-71
2023/07/20 08:02:30;;;;;;;1.92;0.70;;;;;;;24.42;25.41;101390.22;4964185;28;20161;-71
2023/07/20 08:04:55;;;;;;;3.35;0.35;;;;;;;24.38;24.96;101386.09;4959299;28;20039;-71
2023/07/20 08:07:23;;;;;;;2.40;0.20;;;;;;;22.04;27.65;101389.22;4961344;28;20064;-71
2023/07/20 08:09:49;;;;;;;3.70;0.13;;;;;;;20.86;30.89;101405.41;4964706;28;20050;-71
2023/07/20 08:12:18;;;;;;;4.55;0.80;;;;;;;22.69;29.00;101395.47;4960313;28;20039;-71
2023/07/20 08:14:43;;;;;;;2.22;0.57;;;;;;;23.67;27.92;101402.22;4980909;28;20034;-72
2023/07/20 08:17:09;;;;;;;4.25;0.30;;;;;;;21.12;29.41;101405.25;4951681;28;20037;-71
2023/07/20 08:19:39;;;;;;;9.38;0.13;;;;;;;19.95;30.91;101407.66;4968078;28;20046;-70
2023/07/20 08:22:05;;;;;;;1.17;0.10;;;;;;;23.65;28.12;101398.84;4964233;28;20032;-72
2023/07/20 08:24:30;;;;;;;3.45;0.15;;;;;;;24.53;26.82;101411.44;4969711;28;20324;-71
2023/07/20 08:26:55;;;;;;;1.92;0.10;;;;;;;21.62;28.37;101410.28;4953610;28;20030;-70
2023/07/20 08:29:21;;;;;;;2.90;0.10;;;;;;;20.80;31.15;101418.28;4951814;28;20793;-70
2023/07/20 08:31:47;;;;;;;3.45;0.40;;;;;;;22.80;29.88;101406.06;4967061;28;20048;-71
2023/07/20 08:34:14;;;;;;;4.65;0.20;;;;;;;22.84;27.91;101407.50;4966191;28;20085;-71
2023/07/20 08:36:45;;;;;;;3.38;0.10;;;;;;;21.39;30.10;101414.72;4967252;28;20100;-72
2023/07/20 08:39:11;;;;;;;1.27;0.30;;;;;;;20.67;32.01;101415.72;4965814;28;20050;-69
2023/07/20 08:41:39;;;;;;;1.23;0.30;;;;;;;18.87;34.74;101421.22;4969674;28;20366;-70
2023/07/20 08:44:05;;;;;;;2.72;0.20;;;;;;;17.71;36.74;101431.28;4966550;28;20042;-70
2023/07/20 08:46:34;;;;;;;3.70;0.20;;;;;;;19.85;33.43;101410.13;4971608;28;20038;-71
2023/07/20 08:49:02;;;;;;;2.13;0.30;;;;;;;21.70;29.93;101424.69;4972957;28;20173;-70
2023/07/20 08:51:29;;;;;;;6.72;0.50;;;;;;;21.27;30.01;101422.69;4972130;28;20038;-72
2023/07/20 08:53:55;;;;;;;2.80;0.45;;;;;;;22.14;29.94;101420.31;4968817;28;20392;-71
2023/07/20 08:56:25;;;;;;;4.53;0.22;;;;;;;19.74;33.45;101436.56;4969562;28;20031;-71
2023/07/20 08:58:55;;;;;;;3.90;0.20;;;;;;;17.63;36.67;101434.41;4968459;28;20161;-71
2023/07/20 09:01:22;;;;;;;2.95;0.32;;;;;;;18.02;37.25;101430.22;4967651;28;20432;-71
2023/07/20 09:03:48;;;;;;;1.88;0.30;;;;;;;18.76;36.09;101431.63;4969964;28;20545;-70
2023/07/20 09:06:15;;;;;;;2.80;0.15;;;;;;;20.81;31.50;101430.63;4962203;28;20204;-71
2023/07/20 09:08:41;;;;;;;0.77;0.17;;;;;;;22.28;29.24;101429.00;4969819;28;20508;-71
2023/07/20 09:11:08;;;;;;;0.80;0.20;;;;;;;21.12;29.31;101432.69;4970649;28;20066;-71
2023/07/20 09:13:34;;;;;;;2.67;0.10;;;;;;;20.07;31.21;101439.47;4979340;28;20038;-71
2023/07/20 09:16:00;;;;;;;1.08;0.20;;;;;;;20.36;31.03;101441.88;4972857;28;20089;-71
2023/07/20 09:18:27;;;;;;;0.40;0.10;;;;;;;19.85;32.39;101431.38;4966500;28;20042;-72
2023/07/20 09:21:04;;;;;;;1.58;0.10;;;;;;;20.96;30.23;101444.59;4970479;28;20041;-72
2023/07/20 09:23:34;;;;;;;1.98;0.30;;;;;;;20.90;30.27;101441.44;4982467;28;20054;-71
2023/07/20 09:26:01;;;;;;;3.15;0.17;;;;;;;23.22;27.94;101430.06;4970822;28;20030;-71
2023/07/20 09:28:27;;;;;;;0.40;0.10;;;;;;;23.55;26.88;101434.34;4965925;28;20065;-72
2023/07/20 09:30:56;;;;;;;1.27;0.15;;;;;;;21.33;29.27;101451.47;4966881;28;21328;-70
2023/07/20 09:33:22;;;;;;;1.88;0.43;;;;;;;20.21;31.06;101442.97;4968509;28;21080;-71
2023/07/20 09:35:48;;;;;;;0.63;0.40;;;;;;;20.66;31.50;101446.75;4968666;28;20292;-71
2023/07/20 09:38:15;;;;;;;1.85;0.10;;;;;;;21.58;29.61;101436.31;4969237;28;20515;-71
2023/07/20 09:40:42;;;;;;;1.50;0.10;;;;;;;21.46;28.89;101443.38;4969631;28;20456;-71
2023/07/20 09:43:09;;;;;;;1.38;0.20;;;;;;;21.24;30.07;101436.19;4969715;28;20074;-70
2023/07/20 09:45:44;;;;;;;4.68;0.30;;;;;;;20.70;30.71;101428.75;4967285;28;21102;-70
2023/07/20 09:48:10;;;;;;;1.52;0.10;;;;;;;21.44;30.68;101439.97;4967909;28;20107;-69
2023/07/20 09:50:48;;;;;;;2.63;0.20;;;;;;;20.97;30.32;101439.16;4967064;28;20088;-71
2023/07/20 09:53:14;;;;;;;3.35;0.10;;;;;;;19.16;32.87;101444.06;4965679;28;20194;-71
2023/07/20 09:55:49;;;;;;;2.63;0.70;;;;;;;19.99;31.72;101441.81;4966109;28;20050;-69
2023/07/20 09:58:18;;;;;;;3.08;0.20;;;;;;;19.68;32.02;101436.06;4981173;28;20124;-69
2023/07/20 10:00:46;;;;;;;4.47;0.10;;;;;;;20.60;31.78;101443.69;4964508;28;20042;-69
2023/07/20 10:03:16;;;;;;;2.90;0.15;;;;;;;20.25;30.95;101440.00;4960874;28;20461;-69
2023/07/20 10:05:54;;;;;;;1.60;0.10;;;;;;;20.18;31.82;101440.53;4963096;28;20068;-69
2023/07/20 10:08:24;;;;;;;4.15;0.30;;;;;;;20.71;30.42;101433.97;4963395;28;20054;-69
2023/07/20 10:10:50;;;;;;;1.15;0.10;;;;;;;20.92;31.26;101434.19;4950346;28;20033;-70
2023/07/20 10:13:27;;;;;;;3.00;0.45;;;;;;;20.51;30.26;101435.44;4964692;28;20501;-70
2023/07/20 10:16:06;;;;;;;2.38;0.17;;;;;;;20.89;30.07;101438.91;4951304;28;20108;-72
2023/07/20 10:18:45;;;;;;;1.33;0.10;;;;;;;20.68;30.53;101441.31;4967434;28;20521;-72
2023/07/20 10:21:12;;;;;;;1.40;0.10;;;;;;;20.83;31.04;101437.50;4979108;28;20076;-70
2023/07/20 10:23:39;;;;;;;2.08;0.10;;;;;;;20.66;30.06;101440.56;4961004;28;20521;-71
2023/07/20 10:26:05;;;;;;;2.40;0.85;;;;;;;21.87;28.09;101435.78;4969337;28;20153;-70
2023/07/20 10:28:31;;;;;;;1.58;0.20;;;;;;;21.41;28.33;101439.38;4961616;28;20042;-70
2023/07/20 10:30:57;;;;;;;2.00;0.20;;;;;;;20.29;28.69;101436.16;4966203;28;20061;-69
2023/07/20 10:33:24;;;;;;;0.65;0.10;;;;;;;20.92;29.83;101442.16;4962108;28;20034;-70
2023/07/20 10:35:55;;;;;;;4.93;0.10;;;;;;;20.80;29.93;101435.09;4963100;28;20520;-70
2023/07/20 10:38:43;;;;;;;;;;;;;;;20.66;29.99;101444.09;4966355;28;20045;-70
2023/07/20 10:41:24;;;;;;;5.68;0.20;;;;;;;21.79;28.87;101433.75;4965164;28;19917;-70
2023/07/20 10:43:50;;;;;;;2.28;0.15;;;;;;;21.00;29.16;101440.72;4966468;28;20046;-69
2023/07/20 10:46:39;;;;;;;2.22;0.10;;;;;;;20.51;31.71;101432.78;4965698;28;20041;-69
2023/07/20 10:49:06;;;;;;;1.33;0.10;;;;;;;21.09;28.54;101440.06;4966732;28;20096;-69
2023/07/20 10:51:47;;;;;;;2.05;0.22;;;;;;;20.60;28.88;101439.22;4946637;28;20057;-69
2023/07/20 10:54:15;;;;;;;1.70;0.00;;;;;;;21.48;29.27;101451.28;4965953;28;20128;-70
2023/07/20 10:56:41;;;;;;;0.68;0.10;;;;;;;22.54;28.43;101442.84;4965888;28;20493;-69
2023/07/20 10:59:19;;;;;;;0.75;0.22;;;;;;;21.44;29.26;101444.47;4981585;28;20050;-71
2023/07/20 11:01:47;;;;;;;0.93;0.10;;;;;;;20.43;30.88;101443.13;4962923;28;20042;-69
2023/07/20 11:04:12;;;;;;;2.60;0.20;;;;;;;19.52;32.59;101438.03;4963908;28;20062;-69
2023/07/20 11:06:43;;;;;;;0.43;0.10;;;;;;;19.89;32.48;101448.75;4961314;28;20616;-70
2023/07/20 11:09:16;;;;;;;2.38;0.43;;;;;;;21.03;31.33;101435.19;4958298;28;20042;-70
2023/07/20 11:11:44;;;;;;;1.05;0.10;;;;;;;21.66;31.13;101443.66;4961905;28;20054;-70
2023/07/20 11:14:31;;;;;;;4.10;0.38;;;;;;;22.34;30.15;101440.00;4966670;28;20076;-70
2023/07/20 11:17:11;;;;;;;5.03;0.10;;;;;;;21.26;30.75;101447.56;4980383;28;20034;-69
2023/07/20 11:19:37;;;;;;;4.05;0.40;;;;;;;20.92;32.00;101449.28;4959407;28;20584;-70
2023/07/20 11:22:07;;;;;;;3.30;0.65;;;;;;;19.84;33.16;101462.34;4964262;28;20049;-70
2023/07/20 11:24:33;;;;;;;2.25;0.17;;;;;;;19.47;33.11;101454.25;4976961;28;20049;-69
2023/07/20 11:27:00;;;;;;;1.58;0.10;;;;;;;19.50;32.65;101442.59;4964186;28;20045;-70
2023/07/20 11:29:26;;;;;;;3.80;0.28;;;;;;;19.87;31.03;101442.72;4962611;28;20037;-70